sensor_id;sensor_type;location;lat;lon;timestamp;P1;durP1;ratioP1;P2;durP2;ratioP2
42226;SDS011;27892;52.378;13.122;2023-09-19T00:01:32;2.10;;;1.58;;
42226;SDS011;27892;52.378;13.122;2023-09-19T00:03:58;2.13;;;1.70;;
42226;SDS011;27892;52.378;13.122;2023-09-19T00:06:25;1.30;;;1.20;;
42226;SDS011;27892;52.378;13.122;2023-09-19T00:08:56;1.67;;;1.20;;
42226;SDS011;27892;52.378;13.122;2023-09-19T00:11:24;1.38;;;1.30;;
42226;SDS011;27892;52.378;13.122;2023-09-19T00:13:51;0.90;;;0.90;;
42226;SDS011;27892;52.378;13.122;2023-09-19T00:16:17;1.00;;;1.00;;
42226;SDS011;27892;52.378;13.122;2023-09-19T00:18:44;1.30;;;1.20;;
42226;SDS011;27892;52.378;13.122;2023-09-19T00:21:10;1.47;;;1.30;;
42226;SDS011;27892;52.378;13.122;2023-09-19T00:23:36;1.37;;;1.23;;
42226;SDS011;27892;52.378;13.122;2023-09-19T00:26:01;1.40;;;1.20;;
42226;SDS011;27892;52.378;13.122;2023-09-19T00:28:28;1.40;;;1.40;;
42226;SDS011;27892;52.378;13.122;2023-09-19T00:30:56;1.10;;;1.10;;
42226;SDS011;27892;52.378;13.122;2023-09-19T00:33:26;1.57;;;1.30;;
42226;SDS011;27892;52.378;13.122;2023-09-19T00:35:54;1.20;;;1.10;;
42226;SDS011;27892;52.378;13.122;2023-09-19T00:38:22;1.20;;;1.10;;
42226;SDS011;27892;52.378;13.122;2023-09-19T00:40:52;1.00;;;1.00;;
42226;SDS011;27892;52.378;13.122;2023-09-19T00:43:18;0.90;;;0.90;;
42226;SDS011;27892;52.378;13.122;2023-09-19T00:45:49;1.13;;;1.13;;
42226;SDS011;27892;52.378;13.122;2023-09-19T00:48:16;1.30;;;1.20;;
42226;SDS011;27892;52.378;13.122;2023-09-19T00:50:44;1.00;;;1.00;;
42226;SDS011;27892;52.378;13.122;2023-09-19T00:53:14;1.10;;;1.10;;
42226;SDS011;27892;52.378;13.122;2023-09-19T00:55:43;1.53;;;1.43;;
42226;SDS011;27892;52.378;13.122;2023-09-19T00:58:10;1.70;;;1.47;;
42226;SDS011;27892;52.378;13.122;2023-09-19T01:00:36;1.50;;;1.40;;
42226;SDS011;27892;52.378;13.122;2023-09-19T01:03:03;1.43;;;1.33;;
42226;SDS011;27892;52.378;13.122;2023-09-19T01:05:31;1.30;;;1.30;;
42226;SDS011;27892;52.378;13.122;2023-09-19T01:07:58;1.27;;;1.20;;
42226;SDS011;27892;52.378;13.122;2023-09-19T01:10:24;3.07;;;1.30;;
42226;SDS011;27892;52.378;13.122;2023-09-19T01:21:08;1.50;;;1.40;;
42226;SDS011;27892;52.378;13.122;2023-09-19T01:29:23;1.93;;;1.40;;
42226;SDS011;27892;52.378;13.122;2023-09-19T01:32:05;1.60;;;1.50;;
42226;SDS011;27892;52.378;13.122;2023-09-19T01:37:11;1.50;;;1.40;;
42226;SDS011;27892;52.378;13.122;2023-09-19T01:39:37;1.90;;;1.73;;
42226;SDS011;27892;52.378;13.122;2023-09-19T01:44:50;1.83;;;1.73;;
42226;SDS011;27892;52.378;13.122;2023-09-19T01:50:32;1.50;;;1.40;;
42226;SDS011;27892;52.378;13.122;2023-09-19T01:53:08;1.50;;;1.40;;
42226;SDS011;27892;52.378;13.122;2023-09-19T01:55:43;1.30;;;1.30;;
42226;SDS011;27892;52.378;13.122;2023-09-19T01:58:18;1.50;;;1.40;;
42226;SDS011;27892;52.378;13.122;2023-09-19T02:00:51;1.40;;;1.30;;
42226;SDS011;27892;52.378;13.122;2023-09-19T02:03:19;1.40;;;1.30;;
42226;SDS011;27892;52.378;13.122;2023-09-19T02:05:50;1.92;;;1.40;;
42226;SDS011;27892;52.378;13.122;2023-09-19T02:08:18;1.70;;;1.60;;
42226;SDS011;27892;52.378;13.122;2023-09-19T02:10:44;1.63;;;1.53;;
42226;SDS011;27892;52.378;13.122;2023-09-19T02:13:17;1.42;;;1.40;;
42226;SDS011;27892;52.378;13.122;2023-09-19T02:15:47;1.02;;;1.02;;
42226;SDS011;27892;52.378;13.122;2023-09-19T02:18:13;1.20;;;1.20;;
42226;SDS011;27892;52.378;13.122;2023-09-19T02:20:39;1.48;;;1.38;;
42226;SDS011;27892;52.378;13.122;2023-09-19T02:23:05;1.97;;;1.50;;
42226;SDS011;27892;52.378;13.122;2023-09-19T02:25:31;1.30;;;1.20;;
42226;SDS011;27892;52.378;13.122;2023-09-19T02:27:57;1.27;;;1.27;;
42226;SDS011;27892;52.378;13.122;2023-09-19T02:30:26;1.00;;;1.00;;
42226;SDS011;27892;52.378;13.122;2023-09-19T02:32:52;1.13;;;1.13;;
42226;SDS011;27892;52.378;13.122;2023-09-19T02:35:18;1.33;;;1.27;;
42226;SDS011;27892;52.378;13.122;2023-09-19T02:37:46;1.40;;;1.30;;
42226;SDS011;27892;52.378;13.122;2023-09-19T02:40:13;1.20;;;1.10;;
42226;SDS011;27892;52.378;13.122;2023-09-19T02:42:45;1.40;;;1.40;;
42226;SDS011;27892;52.378;13.122;2023-09-19T02:45:18;1.40;;;1.30;;
42226;SDS011;27892;52.378;13.122;2023-09-19T02:47:44;1.53;;;1.43;;
42226;SDS011;27892;52.378;13.122;2023-09-19T02:50:10;1.33;;;1.27;;
42226;SDS011;27892;52.378;13.122;2023-09-19T02:52:37;1.30;;;1.30;;
42226;SDS011;27892;52.378;13.122;2023-09-19T02:55:03;1.50;;;1.40;;
42226;SDS011;27892;52.378;13.122;2023-09-19T02:57:31;3.00;;;1.40;;
42226;SDS011;27892;52.378;13.122;2023-09-19T02:59:58;1.40;;;1.30;;
42226;SDS011;27892;52.378;13.122;2023-09-19T03:02:25;1.30;;;1.30;;
42226;SDS011;27892;52.378;13.122;2023-09-19T03:04:52;1.50;;;1.40;;
42226;SDS011;27892;52.378;13.122;2023-09-19T03:07:18;2.27;;;1.87;;
42226;SDS011;27892;52.378;13.122;2023-09-19T03:09:45;2.10;;;1.87;;
42226;SDS011;27892;52.378;13.122;2023-09-19T03:12:10;2.03;;;1.40;;
42226;SDS011;27892;52.378;13.122;2023-09-19T03:14:36;1.20;;;1.20;;
42226;SDS011;27892;52.378;13.122;2023-09-19T03:17:02;1.80;;;1.70;;
42226;SDS011;27892;52.378;13.122;2023-09-19T03:19:30;1.63;;;1.50;;
42226;SDS011;27892;52.378;13.122;2023-09-19T03:21:58;1.27;;;1.27;;
42226;SDS011;27892;52.378;13.122;2023-09-19T03:24:24;1.40;;;1.30;;
42226;SDS011;27892;52.378;13.122;2023-09-19T03:26:51;1.50;;;1.40;;
42226;SDS011;27892;52.378;13.122;2023-09-19T03:29:17;1.50;;;1.40;;
42226;SDS011;27892;52.378;13.122;2023-09-19T03:31:43;1.50;;;1.40;;
42226;SDS011;27892;52.378;13.122;2023-09-19T03:34:09;1.57;;;1.37;;
42226;SDS011;27892;52.378;13.122;2023-09-19T03:36:43;1.30;;;1.30;;
42226;SDS011;27892;52.378;13.122;2023-09-19T03:39:09;1.10;;;1.10;;
42226;SDS011;27892;52.378;13.122;2023-09-19T03:41:35;3.27;;;1.40;;
42226;SDS011;27892;52.378;13.122;2023-09-19T03:44:04;1.10;;;1.10;;
42226;SDS011;27892;52.378;13.122;2023-09-19T03:46:30;1.20;;;1.10;;
42226;SDS011;27892;52.378;13.122;2023-09-19T03:48:57;1.10;;;1.00;;
42226;SDS011;27892;52.378;13.122;2023-09-19T03:51:23;1.40;;;1.30;;
42226;SDS011;27892;52.378;13.122;2023-09-19T03:53:49;1.07;;;1.07;;
42226;SDS011;27892;52.378;13.122;2023-09-19T03:56:15;1.37;;;1.27;;
42226;SDS011;27892;52.378;13.122;2023-09-19T03:58:40;1.20;;;1.13;;
42226;SDS011;27892;52.378;13.122;2023-09-19T04:01:06;1.00;;;1.00;;
42226;SDS011;27892;52.378;13.122;2023-09-19T04:03:32;1.00;;;1.00;;
42226;SDS011;27892;52.378;13.122;2023-09-19T04:06:14;1.00;;;1.00;;
42226;SDS011;27892;52.378;13.122;2023-09-19T04:08:40;1.17;;;1.07;;
42226;SDS011;27892;52.378;13.122;2023-09-19T04:11:06;1.03;;;1.00;;
42226;SDS011;27892;52.378;13.122;2023-09-19T04:13:32;0.80;;;0.80;;
42226;SDS011;27892;52.378;13.122;2023-09-19T04:15:58;1.30;;;1.13;;
42226;SDS011;27892;52.378;13.122;2023-09-19T04:18:23;0.80;;;0.80;;
42226;SDS011;27892;52.378;13.122;2023-09-19T04:20:49;0.90;;;0.90;;
42226;SDS011;27892;52.378;13.122;2023-09-19T04:23:15;0.90;;;0.90;;
42226;SDS011;27892;52.378;13.122;2023-09-19T04:25:42;1.43;;;1.20;;
42226;SDS011;27892;52.378;13.122;2023-09-19T04:28:10;0.93;;;0.93;;
42226;SDS011;27892;52.378;13.122;2023-09-19T04:30:36;1.50;;;1.43;;
42226;SDS011;27892;52.378;13.122;2023-09-19T04:33:03;1.30;;;1.20;;
42226;SDS011;27892;52.378;13.122;2023-09-19T04:35:28;2.33;;;1.50;;
42226;SDS011;27892;52.378;13.122;2023-09-19T04:37:56;1.13;;;1.13;;
42226;SDS011;27892;52.378;13.122;2023-09-19T04:40:22;1.23;;;1.13;;
42226;SDS011;27892;52.378;13.122;2023-09-19T04:42:53;1.40;;;1.30;;
42226;SDS011;27892;52.378;13.122;2023-09-19T04:45:22;1.47;;;1.37;;
42226;SDS011;27892;52.378;13.122;2023-09-19T04:47:51;1.53;;;1.40;;
42226;SDS011;27892;52.378;13.122;2023-09-19T04:50:18;1.50;;;1.40;;
42226;SDS011;27892;52.378;13.122;2023-09-19T04:52:44;1.10;;;1.10;;
42226;SDS011;27892;52.378;13.122;2023-09-19T04:57:41;1.50;;;1.40;;
42226;SDS011;27892;52.378;13.122;2023-09-19T05:00:14;1.30;;;1.20;;
42226;SDS011;27892;52.378;13.122;2023-09-19T05:02:41;1.10;;;1.10;;
42226;SDS011;27892;52.378;13.122;2023-09-19T05:05:08;1.03;;;1.03;;
42226;SDS011;27892;52.378;13.122;2023-09-19T05:07:40;2.17;;;1.47;;
42226;SDS011;27892;52.378;13.122;2023-09-19T05:10:07;1.57;;;1.47;;
42226;SDS011;27892;52.378;13.122;2023-09-19T05:12:33;1.30;;;1.20;;
42226;SDS011;27892;52.378;13.122;2023-09-19T05:15:00;1.27;;;1.23;;
42226;SDS011;27892;52.378;13.122;2023-09-19T05:17:32;1.40;;;1.30;;
42226;SDS011;27892;52.378;13.122;2023-09-19T05:19:59;1.50;;;1.40;;
42226;SDS011;27892;52.378;13.122;2023-09-19T05:22:31;1.53;;;1.43;;
42226;SDS011;27892;52.378;13.122;2023-09-19T05:25:00;1.20;;;1.20;;
42226;SDS011;27892;52.378;13.122;2023-09-19T05:27:25;1.50;;;1.40;;
42226;SDS011;27892;52.378;13.122;2023-09-19T05:29:51;1.47;;;1.40;;
42226;SDS011;27892;52.378;13.122;2023-09-19T05:32:18;1.20;;;1.20;;
42226;SDS011;27892;52.378;13.122;2023-09-19T05:34:45;1.07;;;1.07;;
42226;SDS011;27892;52.378;13.122;2023-09-19T05:37:12;1.50;;;1.10;;
42226;SDS011;27892;52.378;13.122;2023-09-19T05:39:40;1.10;;;1.10;;
42226;SDS011;27892;52.378;13.122;2023-09-19T05:42:06;1.20;;;1.10;;
42226;SDS011;27892;52.378;13.122;2023-09-19T05:44:33;1.50;;;1.40;;
42226;SDS011;27892;52.378;13.122;2023-09-19T05:46:59;1.40;;;1.30;;
42226;SDS011;27892;52.378;13.122;2023-09-19T05:49:25;1.07;;;1.07;;
42226;SDS011;27892;52.378;13.122;2023-09-19T05:51:50;1.30;;;1.20;;
42226;SDS011;27892;52.378;13.122;2023-09-19T05:54:19;1.00;;;1.00;;
42226;SDS011;27892;52.378;13.122;2023-09-19T05:56:45;1.40;;;1.30;;
42226;SDS011;27892;52.378;13.122;2023-09-19T05:59:12;0.90;;;0.90;;
42226;SDS011;27892;52.378;13.122;2023-09-19T06:01:40;1.20;;;1.13;;
42226;SDS011;27892;52.378;13.122;2023-09-19T06:04:07;1.03;;;1.03;;
42226;SDS011;27892;52.378;13.122;2023-09-19T06:06:33;1.37;;;1.23;;
42226;SDS011;27892;52.378;13.122;2023-09-19T06:09:01;1.50;;;1.40;;
42226;SDS011;27892;52.378;13.122;2023-09-19T06:11:30;1.20;;;1.10;;
42226;SDS011;27892;52.378;13.122;2023-09-19T06:13:57;1.40;;;1.30;;
42226;SDS011;27892;52.378;13.122;2023-09-19T06:16:25;1.27;;;1.17;;
42226;SDS011;27892;52.378;13.122;2023-09-19T06:18:51;1.60;;;1.50;;
42226;SDS011;27892;52.378;13.122;2023-09-19T06:21:18;1.60;;;1.50;;
42226;SDS011;27892;52.378;13.122;2023-09-19T06:23:43;1.30;;;1.20;;
42226;SDS011;27892;52.378;13.122;2023-09-19T06:26:09;1.88;;;1.50;;
42226;SDS011;27892;52.378;13.122;2023-09-19T06:28:35;3.35;;;1.65;;
42226;SDS011;27892;52.378;13.122;2023-09-19T06:31:02;1.30;;;1.20;;
42226;SDS011;27892;52.378;13.122;2023-09-19T06:33:28;1.60;;;1.40;;
42226;SDS011;27892;52.378;13.122;2023-09-19T06:35:56;1.80;;;1.33;;
42226;SDS011;27892;52.378;13.122;2023-09-19T06:38:25;1.50;;;1.25;;
42226;SDS011;27892;52.378;13.122;2023-09-19T06:40:50;1.50;;;1.40;;
42226;SDS011;27892;52.378;13.122;2023-09-19T06:43:16;1.25;;;1.13;;
42226;SDS011;27892;52.378;13.122;2023-09-19T06:45:42;2.28;;;1.35;;
42226;SDS011;27892;52.378;13.122;2023-09-19T06:48:07;1.60;;;1.27;;
42226;SDS011;27892;52.378;13.122;2023-09-19T06:50:35;1.48;;;1.20;;
42226;SDS011;27892;52.378;13.122;2023-09-19T06:53:01;2.00;;;1.20;;
42226;SDS011;27892;52.378;13.122;2023-09-19T06:55:27;1.30;;;1.20;;
42226;SDS011;27892;52.378;13.122;2023-09-19T06:57:56;1.95;;;1.30;;
42226;SDS011;27892;52.378;13.122;2023-09-19T07:00:23;1.40;;;1.30;;
42226;SDS011;27892;52.378;13.122;2023-09-19T07:02:58;1.50;;;1.40;;
42226;SDS011;27892;52.378;13.122;2023-09-19T07:05:29;1.30;;;1.20;;
42226;SDS011;27892;52.378;13.122;2023-09-19T07:07:56;2.40;;;1.50;;
42226;SDS011;27892;52.378;13.122;2023-09-19T07:10:28;2.45;;;1.83;;
42226;SDS011;27892;52.378;13.122;2023-09-19T07:12:55;2.20;;;1.95;;
42226;SDS011;27892;52.378;13.122;2023-09-19T07:15:22;1.48;;;1.38;;
42226;SDS011;27892;52.378;13.122;2023-09-19T07:17:50;3.42;;;2.03;;
42226;SDS011;27892;52.378;13.122;2023-09-19T07:20:19;4.03;;;2.30;;
42226;SDS011;27892;52.378;13.122;2023-09-19T07:22:45;1.90;;;1.70;;
42226;SDS011;27892;52.378;13.122;2023-09-19T07:25:13;2.88;;;1.90;;
42226;SDS011;27892;52.378;13.122;2023-09-19T07:27:40;5.82;;;2.50;;
42226;SDS011;27892;52.378;13.122;2023-09-19T07:30:08;2.28;;;2.05;;
42226;SDS011;27892;52.378;13.122;2023-09-19T07:32:34;2.58;;;2.08;;
42226;SDS011;27892;52.378;13.122;2023-09-19T07:35:02;1.95;;;1.80;;
42226;SDS011;27892;52.378;13.122;2023-09-19T07:37:29;2.17;;;1.60;;
42226;SDS011;27892;52.378;13.122;2023-09-19T07:39:58;2.65;;;1.60;;
42226;SDS011;27892;52.378;13.122;2023-09-19T07:42:25;1.90;;;1.70;;
42226;SDS011;27892;52.378;13.122;2023-09-19T07:44:51;1.73;;;1.63;;
42226;SDS011;27892;52.378;13.122;2023-09-19T07:47:18;1.92;;;1.70;;
42226;SDS011;27892;52.378;13.122;2023-09-19T07:49:49;2.20;;;1.70;;
42226;SDS011;27892;52.378;13.122;2023-09-19T07:52:14;2.00;;;1.80;;
42226;SDS011;27892;52.378;13.122;2023-09-19T07:54:41;2.30;;;2.05;;
42226;SDS011;27892;52.378;13.122;2023-09-19T07:57:09;2.30;;;1.83;;
42226;SDS011;27892;52.378;13.122;2023-09-19T07:59:35;1.63;;;1.52;;
42226;SDS011;27892;52.378;13.122;2023-09-19T08:02:03;3.30;;;2.00;;
42226;SDS011;27892;52.378;13.122;2023-09-19T08:04:29;2.63;;;1.95;;
42226;SDS011;27892;52.378;13.122;2023-09-19T08:06:58;3.75;;;2.17;;
42226;SDS011;27892;52.378;13.122;2023-09-19T08:09:24;4.63;;;2.35;;
42226;SDS011;27892;52.378;13.122;2023-09-19T08:11:49;3.45;;;2.20;;
42226;SDS011;27892;52.378;13.122;2023-09-19T08:14:15;3.25;;;2.00;;
42226;SDS011;27892;52.378;13.122;2023-09-19T08:16:41;2.50;;;2.05;;
42226;SDS011;27892;52.378;13.122;2023-09-19T08:19:09;1.75;;;1.50;;
42226;SDS011;27892;52.378;13.122;2023-09-19T08:21:35;3.28;;;1.80;;
42226;SDS011;27892;52.378;13.122;2023-09-19T08:24:01;2.60;;;1.88;;
42226;SDS011;27892;52.378;13.122;2023-09-19T08:26:30;2.05;;;1.95;;
42226;SDS011;27892;52.378;13.122;2023-09-19T08:28:57;1.88;;;1.77;;
42226;SDS011;27892;52.378;13.122;2023-09-19T08:31:22;2.45;;;1.80;;
42226;SDS011;27892;52.378;13.122;2023-09-19T08:33:49;5.25;;;2.45;;
42226;SDS011;27892;52.378;13.122;2023-09-19T08:36:16;2.67;;;1.77;;
42226;SDS011;27892;52.378;13.122;2023-09-19T08:38:42;3.40;;;2.20;;
42226;SDS011;27892;52.378;13.122;2023-09-19T08:41:08;3.10;;;2.10;;
42226;SDS011;27892;52.378;13.122;2023-09-19T08:43:34;2.85;;;2.00;;
42226;SDS011;27892;52.378;13.122;2023-09-19T08:46:10;3.10;;;2.00;;
42226;SDS011;27892;52.378;13.122;2023-09-19T08:49:02;2.50;;;2.00;;
42226;SDS011;27892;52.378;13.122;2023-09-19T08:51:33;2.38;;;1.77;;
42226;SDS011;27892;52.378;13.122;2023-09-19T08:54:06;3.63;;;2.00;;
42226;SDS011;27892;52.378;13.122;2023-09-19T08:56:33;4.68;;;2.30;;
42226;SDS011;27892;52.378;13.122;2023-09-19T08:59:05;2.42;;;2.20;;
42226;SDS011;27892;52.378;13.122;2023-09-19T09:01:37;4.03;;;2.33;;
42226;SDS011;27892;52.378;13.122;2023-09-19T09:04:06;3.85;;;2.10;;
42226;SDS011;27892;52.378;13.122;2023-09-19T09:06:34;3.42;;;2.40;;
42226;SDS011;27892;52.378;13.122;2023-09-19T09:09:01;3.63;;;2.20;;
42226;SDS011;27892;52.378;13.122;2023-09-19T09:11:28;2.20;;;1.98;;
42226;SDS011;27892;52.378;13.122;2023-09-19T09:13:57;2.55;;;1.98;;
42226;SDS011;27892;52.378;13.122;2023-09-19T09:16:23;2.63;;;2.03;;
42226;SDS011;27892;52.378;13.122;2023-09-19T09:18:50;3.08;;;1.85;;
42226;SDS011;27892;52.378;13.122;2023-09-19T09:21:19;2.17;;;1.67;;
42226;SDS011;27892;52.378;13.122;2023-09-19T09:23:46;5.38;;;2.60;;
42226;SDS011;27892;52.378;13.122;2023-09-19T09:26:12;4.18;;;2.25;;
42226;SDS011;27892;52.378;13.122;2023-09-19T09:28:44;4.15;;;2.00;;
42226;SDS011;27892;52.378;13.122;2023-09-19T09:31:23;5.78;;;2.47;;
42226;SDS011;27892;52.378;13.122;2023-09-19T09:33:53;3.13;;;2.00;;
42226;SDS011;27892;52.378;13.122;2023-09-19T09:36:33;2.78;;;2.10;;
42226;SDS011;27892;52.378;13.122;2023-09-19T09:39:07;3.38;;;2.10;;
42226;SDS011;27892;52.378;13.122;2023-09-19T09:41:49;1.90;;;1.70;;
42226;SDS011;27892;52.378;13.122;2023-09-19T09:44:16;4.05;;;2.20;;
42226;SDS011;27892;52.378;13.122;2023-09-19T09:46:44;3.03;;;2.30;;
42226;SDS011;27892;52.378;13.122;2023-09-19T09:49:23;3.30;;;2.10;;
42226;SDS011;27892;52.378;13.122;2023-09-19T09:55:00;3.55;;;2.10;;
42226;SDS011;27892;52.378;13.122;2023-09-19T09:57:30;4.28;;;2.35;;
42226;SDS011;27892;52.378;13.122;2023-09-19T09:59:57;3.65;;;2.20;;
42226;SDS011;27892;52.378;13.122;2023-09-19T10:02:38;2.47;;;2.00;;
42226;SDS011;27892;52.378;13.122;2023-09-19T10:05:11;3.80;;;2.40;;
42226;SDS011;27892;52.378;13.122;2023-09-19T10:07:54;3.33;;;2.35;;
42226;SDS011;27892;52.378;13.122;2023-09-19T10:13:05;3.08;;;2.17;;
42226;SDS011;27892;52.378;13.122;2023-09-19T10:15:33;4.35;;;2.50;;
42226;SDS011;27892;52.378;13.122;2023-09-19T10:18:04;2.78;;;2.00;;
42226;SDS011;27892;52.378;13.122;2023-09-19T10:20:33;5.57;;;2.50;;
42226;SDS011;27892;52.378;13.122;2023-09-19T10:23:04;3.75;;;1.90;;
42226;SDS011;27892;52.378;13.122;2023-09-19T10:25:38;3.70;;;2.45;;
42226;SDS011;27892;52.378;13.122;2023-09-19T10:28:06;5.22;;;2.72;;
42226;SDS011;27892;52.378;13.122;2023-09-19T10:33:19;3.85;;;2.15;;
42226;SDS011;27892;52.378;13.122;2023-09-19T10:35:50;4.72;;;2.10;;
42226;SDS011;27892;52.378;13.122;2023-09-19T10:38:22;3.55;;;2.15;;
42226;SDS011;27892;52.378;13.122;2023-09-19T10:40:53;3.08;;;2.28;;
42226;SDS011;27892;52.378;13.122;2023-09-19T10:43:21;3.00;;;1.90;;
42226;SDS011;27892;52.378;13.122;2023-09-19T10:45:50;3.30;;;2.03;;
42226;SDS011;27892;52.378;13.122;2023-09-19T10:48:18;7.00;;;2.42;;
42226;SDS011;27892;52.378;13.122;2023-09-19T10:53:24;2.92;;;2.03;;
42226;SDS011;27892;52.378;13.122;2023-09-19T10:55:55;4.32;;;1.98;;
42226;SDS011;27892;52.378;13.122;2023-09-19T10:58:28;3.42;;;2.05;;
42226;SDS011;27892;52.378;13.122;2023-09-19T11:01:00;5.68;;;2.47;;
42226;SDS011;27892;52.378;13.122;2023-09-19T11:03:30;4.85;;;2.05;;
42226;SDS011;27892;52.378;13.122;2023-09-19T11:06:03;3.67;;;1.90;;
42226;SDS011;27892;52.378;13.122;2023-09-19T11:14:28;3.45;;;2.00;;
42226;SDS011;27892;52.378;13.122;2023-09-19T11:30:32;2.80;;;1.63;;
42226;SDS011;27892;52.378;13.122;2023-09-19T11:36:01;3.00;;;1.85;;
42226;SDS011;27892;52.378;13.122;2023-09-19T11:43:47;2.55;;;1.60;;
42226;SDS011;27892;52.378;13.122;2023-09-19T11:46:13;2.85;;;1.80;;
42226;SDS011;27892;52.378;13.122;2023-09-19T11:48:49;2.15;;;1.60;;
42226;SDS011;27892;52.378;13.122;2023-09-19T11:51:25;3.17;;;1.60;;
42226;SDS011;27892;52.378;13.122;2023-09-19T11:53:53;3.22;;;1.83;;
42226;SDS011;27892;52.378;13.122;2023-09-19T11:56:21;2.88;;;1.52;;
42226;SDS011;27892;52.378;13.122;2023-09-19T11:58:49;2.28;;;1.50;;
42226;SDS011;27892;52.378;13.122;2023-09-19T12:01:21;2.67;;;1.75;;
42226;SDS011;27892;52.378;13.122;2023-09-19T12:03:48;2.88;;;1.80;;
42226;SDS011;27892;52.378;13.122;2023-09-19T12:06:19;3.58;;;2.00;;
42226;SDS011;27892;52.378;13.122;2023-09-19T12:08:47;2.53;;;1.95;;
42226;SDS011;27892;52.378;13.122;2023-09-19T12:11:14;3.28;;;1.98;;
42226;SDS011;27892;52.378;13.122;2023-09-19T12:13:45;2.22;;;1.50;;
42226;SDS011;27892;52.378;13.122;2023-09-19T12:16:17;2.83;;;1.80;;
42226;SDS011;27892;52.378;13.122;2023-09-19T12:18:46;2.40;;;1.40;;
42226;SDS011;27892;52.378;13.122;2023-09-19T12:21:24;2.08;;;1.60;;
42226;SDS011;27892;52.378;13.122;2023-09-19T12:26:39;3.83;;;1.67;;
42226;SDS011;27892;52.378;13.122;2023-09-19T12:29:13;3.10;;;1.98;;
42226;SDS011;27892;52.378;13.122;2023-09-19T12:31:49;2.28;;;1.70;;
42226;SDS011;27892;52.378;13.122;2023-09-19T12:34:32;2.38;;;1.60;;
42226;SDS011;27892;52.378;13.122;2023-09-19T12:39:47;2.88;;;1.60;;
42226;SDS011;27892;52.378;13.122;2023-09-19T12:42:24;3.25;;;1.80;;
42226;SDS011;27892;52.378;13.122;2023-09-19T12:44:57;2.92;;;1.77;;
42226;SDS011;27892;52.378;13.122;2023-09-19T12:47:26;4.03;;;1.80;;
42226;SDS011;27892;52.378;13.122;2023-09-19T12:50:13;4.38;;;1.90;;
42226;SDS011;27892;52.378;13.122;2023-09-19T12:52:49;2.08;;;1.30;;
42226;SDS011;27892;52.378;13.122;2023-09-19T12:55:25;2.15;;;1.60;;
42226;SDS011;27892;52.378;13.122;2023-09-19T13:03:16;2.85;;;1.52;;
42226;SDS011;27892;52.378;13.122;2023-09-19T13:05:50;2.70;;;1.50;;
42226;SDS011;27892;52.378;13.122;2023-09-19T13:16:13;4.05;;;1.70;;
42226;SDS011;27892;52.378;13.122;2023-09-19T13:21:12;2.58;;;1.70;;
42226;SDS011;27892;52.378;13.122;2023-09-19T13:24:18;1.77;;;1.50;;
42226;SDS011;27892;52.378;13.122;2023-09-19T13:26:55;1.52;;;1.42;;
42226;SDS011;27892;52.378;13.122;2023-09-19T13:29:21;3.25;;;1.90;;
42226;SDS011;27892;52.378;13.122;2023-09-19T13:31:48;2.60;;;1.60;;
42226;SDS011;27892;52.378;13.122;2023-09-19T13:34:14;1.60;;;1.50;;
42226;SDS011;27892;52.378;13.122;2023-09-19T13:36:41;2.35;;;1.50;;
42226;SDS011;27892;52.378;13.122;2023-09-19T13:39:07;2.08;;;1.42;;
42226;SDS011;27892;52.378;13.122;2023-09-19T13:41:38;1.60;;;1.50;;
42226;SDS011;27892;52.378;13.122;2023-09-19T13:44:04;2.08;;;1.75;;
42226;SDS011;27892;52.378;13.122;2023-09-19T13:46:30;1.88;;;1.70;;
42226;SDS011;27892;52.378;13.122;2023-09-19T13:49:00;1.92;;;1.63;;
42226;SDS011;27892;52.378;13.122;2023-09-19T13:51:29;2.53;;;1.50;;
42226;SDS011;27892;52.378;13.122;2023-09-19T13:53:57;2.83;;;1.80;;
42226;SDS011;27892;52.378;13.122;2023-09-19T13:56:24;1.95;;;1.50;;
42226;SDS011;27892;52.378;13.122;2023-09-19T13:58:53;1.52;;;1.33;;
42226;SDS011;27892;52.378;13.122;2023-09-19T14:01:19;2.22;;;1.60;;
42226;SDS011;27892;52.378;13.122;2023-09-19T14:03:45;2.15;;;1.40;;
42226;SDS011;27892;52.378;13.122;2023-09-19T14:06:15;3.83;;;1.75;;
42226;SDS011;27892;52.378;13.122;2023-09-19T14:08:41;3.13;;;1.75;;
42226;SDS011;27892;52.378;13.122;2023-09-19T14:11:07;2.40;;;1.75;;
42226;SDS011;27892;52.378;13.122;2023-09-19T14:13:33;3.65;;;1.80;;
42226;SDS011;27892;52.378;13.122;2023-09-19T14:16:05;3.53;;;2.08;;
42226;SDS011;27892;52.378;13.122;2023-09-19T14:18:32;3.65;;;1.80;;
42226;SDS011;27892;52.378;13.122;2023-09-19T14:20:58;2.60;;;1.60;;
42226;SDS011;27892;52.378;13.122;2023-09-19T14:23:28;2.50;;;1.85;;
42226;SDS011;27892;52.378;13.122;2023-09-19T14:25:54;2.63;;;1.77;;
42226;SDS011;27892;52.378;13.122;2023-09-19T14:28:19;2.83;;;1.83;;
42226;SDS011;27892;52.378;13.122;2023-09-19T14:30:45;2.00;;;1.60;;
42226;SDS011;27892;52.378;13.122;2023-09-19T14:33:11;2.95;;;1.50;;
42226;SDS011;27892;52.378;13.122;2023-09-19T14:35:37;1.50;;;1.40;;
42226;SDS011;27892;52.378;13.122;2023-09-19T14:38:03;2.63;;;1.75;;
42226;SDS011;27892;52.378;13.122;2023-09-19T14:40:29;1.63;;;1.42;;
42226;SDS011;27892;52.378;13.122;2023-09-19T14:42:56;4.72;;;1.83;;
42226;SDS011;27892;52.378;13.122;2023-09-19T14:45:21;3.97;;;1.65;;
42226;SDS011;27892;52.378;13.122;2023-09-19T14:47:47;2.60;;;1.77;;
42226;SDS011;27892;52.378;13.122;2023-09-19T14:50:13;4.32;;;1.92;;
42226;SDS011;27892;52.378;13.122;2023-09-19T14:52:40;3.55;;;2.03;;
42226;SDS011;27892;52.378;13.122;2023-09-19T14:55:06;1.95;;;1.70;;
42226;SDS011;27892;52.378;13.122;2023-09-19T14:57:36;2.75;;;1.70;;
42226;SDS011;27892;52.378;13.122;2023-09-19T15:00:05;2.25;;;1.30;;
42226;SDS011;27892;52.378;13.122;2023-09-19T15:02:36;2.28;;;1.85;;
42226;SDS011;27892;52.378;13.122;2023-09-19T15:05:03;3.85;;;1.85;;
42226;SDS011;27892;52.378;13.122;2023-09-19T15:07:31;3.38;;;1.70;;
42226;SDS011;27892;52.378;13.122;2023-09-19T15:09:57;1.60;;;1.50;;
42226;SDS011;27892;52.378;13.122;2023-09-19T15:12:23;3.05;;;1.60;;
42226;SDS011;27892;52.378;13.122;2023-09-19T15:14:49;2.75;;;1.60;;
42226;SDS011;27892;52.378;13.122;2023-09-19T15:17:14;3.10;;;1.70;;
42226;SDS011;27892;52.378;13.122;2023-09-19T15:19:40;1.92;;;1.50;;
42226;SDS011;27892;52.378;13.122;2023-09-19T15:22:06;2.17;;;1.60;;
42226;SDS011;27892;52.378;13.122;2023-09-19T15:24:32;1.73;;;1.63;;
42226;SDS011;27892;52.378;13.122;2023-09-19T15:26:57;1.63;;;1.35;;
42226;SDS011;27892;52.378;13.122;2023-09-19T15:29:23;2.92;;;1.50;;
42226;SDS011;27892;52.378;13.122;2023-09-19T15:31:49;1.80;;;1.60;;
42226;SDS011;27892;52.378;13.122;2023-09-19T15:34:14;2.92;;;1.90;;
42226;SDS011;27892;52.378;13.122;2023-09-19T15:36:41;2.10;;;1.58;;
42226;SDS011;27892;52.378;13.122;2023-09-19T15:39:07;4.03;;;2.13;;
42226;SDS011;27892;52.378;13.122;2023-09-19T15:41:36;3.28;;;1.95;;
42226;SDS011;27892;52.378;13.122;2023-09-19T15:44:15;3.67;;;2.00;;
42226;SDS011;27892;52.378;13.122;2023-09-19T15:46:42;2.47;;;1.80;;
42226;SDS011;27892;52.378;13.122;2023-09-19T15:49:09;2.45;;;1.67;;
42226;SDS011;27892;52.378;13.122;2023-09-19T15:51:36;2.38;;;1.88;;
42226;SDS011;27892;52.378;13.122;2023-09-19T15:54:15;2.47;;;1.90;;
42226;SDS011;27892;52.378;13.122;2023-09-19T15:56:41;2.70;;;1.67;;
42226;SDS011;27892;52.378;13.122;2023-09-19T15:59:08;3.03;;;1.90;;
42226;SDS011;27892;52.378;13.122;2023-09-19T16:01:34;3.90;;;2.42;;
42226;SDS011;27892;52.378;13.122;2023-09-19T16:04:02;2.90;;;2.05;;
42226;SDS011;27892;52.378;13.122;2023-09-19T16:06:29;2.10;;;1.90;;